createdAt,value
2023-03-25T00:00:15.803Z,5.10
2023-03-25T00:02:48.295Z,5.10
2023-03-25T00:05:17.391Z,5.00
2023-03-25T00:07:45.360Z,5.00
2023-03-25T00:10:13.945Z,5.00
2023-03-25T00:12:42.680Z,4.90
2023-03-25T00:15:11.206Z,4.80
2023-03-25T00:17:38.795Z,4.70
2023-03-25T00:20:10.291Z,4.70
2023-03-25T00:22:41.301Z,4.60
2023-03-25T00:25:11.071Z,4.60
2023-03-25T00:27:38.382Z,4.60
2023-03-25T00:30:06.667Z,4.50
2023-03-25T00:32:33.850Z,4.40
2023-03-25T00:35:01.026Z,4.30
2023-03-25T00:37:27.950Z,4.30
2023-03-25T00:39:54.855Z,4.20
2023-03-25T00:42:26.388Z,4.20
2023-03-25T00:44:54.262Z,4.20
2023-03-25T00:47:22.160Z,4.10
2023-03-25T00:49:50.063Z,4.10
2023-03-25T00:52:18.467Z,4.00
2023-03-25T00:54:45.959Z,4.00
2023-03-25T00:57:13.378Z,4.00
2023-03-25T00:59:40.610Z,3.90
2023-03-25T01:02:07.585Z,3.90
2023-03-25T01:04:35.405Z,3.80
2023-03-25T01:07:03.497Z,3.80
2023-03-25T01:09:31.285Z,3.80
2023-03-25T01:11:58.219Z,3.80
2023-03-25T01:14:27.683Z,3.70
2023-03-25T01:16:55.355Z,3.70
2023-03-25T01:19:23.424Z,3.80
2023-03-25T01:21:51.029Z,3.70
2023-03-25T01:24:18.180Z,3.60
2023-03-25T01:26:46.020Z,3.60
2023-03-25T01:29:16.037Z,3.60
2023-03-25T01:31:43.413Z,3.50
2023-03-25T01:34:11.100Z,3.50
2023-03-25T01:36:40.098Z,3.40
2023-03-25T01:39:09.370Z,3.40
2023-03-25T01:41:49.240Z,3.40
2023-03-25T01:44:20.001Z,3.40
2023-03-25T01:46:49.856Z,3.40
2023-03-25T01:49:23.802Z,3.40
2023-03-25T01:51:56.487Z,3.40
2023-03-25T01:54:24.408Z,3.40
2023-03-25T01:56:52.360Z,3.40
2023-03-25T01:59:24.907Z,3.40
2023-03-25T02:01:53.644Z,3.40
2023-03-25T02:04:51.718Z,3.40
2023-03-25T02:07:19.966Z,3.40
2023-03-25T02:09:46.976Z,3.40
2023-03-25T02:12:14.022Z,3.30
2023-03-25T02:14:41.290Z,3.30
2023-03-25T02:17:49.467Z,3.40
2023-03-25T02:20:37.772Z,3.30
2023-03-25T02:23:28.743Z,3.30
2023-03-25T02:26:11.001Z,3.30
2023-03-25T02:28:50.094Z,3.20
2023-03-25T02:31:46.413Z,3.20
2023-03-25T02:34:48.947Z,3.20
2023-03-25T02:37:33.687Z,3.10
2023-03-25T02:40:08.815Z,3.10
2023-03-25T02:42:47.044Z,3.10
2023-03-25T02:45:22.968Z,3.00
2023-03-25T02:47:55.769Z,3.00
2023-03-25T02:50:31.982Z,3.00
2023-03-25T02:53:02.851Z,3.00
2023-03-25T02:55:31.628Z,2.90
2023-03-25T02:57:59.819Z,2.90
2023-03-25T03:00:29.139Z,2.90
2023-03-25T03:02:59.676Z,2.90
2023-03-25T03:05:31.247Z,2.90
2023-03-25T03:08:41.421Z,2.90
2023-03-25T03:11:27.333Z,2.90
2023-03-25T03:13:57.920Z,2.90
2023-03-25T03:16:35.690Z,2.80
2023-03-25T03:19:31.616Z,2.80
2023-03-25T03:22:16.928Z,2.90
2023-03-25T03:25:10.729Z,2.80
2023-03-25T03:27:52.948Z,2.80
2023-03-25T03:30:32.607Z,2.80
2023-03-25T03:33:21.781Z,2.70
2023-03-25T03:36:16.495Z,2.70
2023-03-25T03:38:54.545Z,2.70
2023-03-25T03:41:25.523Z,2.70
2023-03-25T03:43:58.143Z,2.70
2023-03-25T03:46:31.534Z,2.70
2023-03-25T03:49:01.810Z,2.70
2023-03-25T03:51:37.160Z,2.60
2023-03-25T03:54:13.922Z,2.60
2023-03-25T03:56:53.603Z,2.50
2023-03-25T03:59:43.402Z,2.60
2023-03-25T04:02:34.695Z,2.50
2023-03-25T04:05:01.904Z,2.50
2023-03-25T04:07:39.073Z,2.50
2023-03-25T04:10:18.496Z,2.60
2023-03-25T04:12:49.549Z,2.50
2023-03-25T04:15:17.208Z,2.50
2023-03-25T04:17:44.375Z,2.50
2023-03-25T04:20:15.865Z,2.40
2023-03-25T04:22:45.937Z,2.50
2023-03-25T04:25:14.089Z,2.40
2023-03-25T04:27:41.146Z,2.40
2023-03-25T04:30:09.280Z,2.40
2023-03-25T04:32:36.472Z,2.40
2023-03-25T04:35:04.042Z,2.50
2023-03-25T04:37:33.819Z,2.50
2023-03-25T04:40:00.804Z,2.40
2023-03-25T04:42:32.965Z,2.40
2023-03-25T04:45:00.336Z,2.40
2023-03-25T04:47:27.928Z,2.40
2023-03-25T04:49:54.915Z,2.30
2023-03-25T04:52:21.838Z,2.30
2023-03-25T04:54:48.828Z,2.40
2023-03-25T04:57:15.719Z,2.40
2023-03-25T04:59:42.683Z,2.40
2023-03-25T05:02:13.689Z,2.40
2023-03-25T05:04:47.768Z,2.50
2023-03-25T05:07:16.612Z,2.50
2023-03-25T05:09:43.803Z,2.50
2023-03-25T05:12:11.505Z,2.40
2023-03-25T05:14:38.693Z,2.50
2023-03-25T05:17:05.744Z,2.50
2023-03-25T05:19:35.261Z,2.50
2023-03-25T05:22:03.190Z,2.50
2023-03-25T05:24:30.550Z,2.50
2023-03-25T05:26:57.552Z,2.50
2023-03-25T05:29:24.493Z,2.50
2023-03-25T05:31:51.444Z,2.50
2023-03-25T05:34:18.489Z,2.50
2023-03-25T05:36:45.927Z,2.50
2023-03-25T05:39:13.043Z,2.50
2023-03-25T05:41:40.005Z,2.60
2023-03-25T05:44:08.532Z,2.60
2023-03-25T05:46:35.449Z,2.60
2023-03-25T05:49:02.482Z,2.70
2023-03-25T05:51:37.770Z,2.70
2023-03-25T05:54:11.300Z,2.70
2023-03-25T05:56:39.500Z,2.70
2023-03-25T05:59:06.528Z,2.70
2023-03-25T06:01:34.384Z,2.80
2023-03-25T06:04:03.012Z,2.70
2023-03-25T06:06:32.092Z,2.70
2023-03-25T06:08:59.470Z,2.70
2023-03-25T06:11:26.514Z,2.70
2023-03-25T06:13:53.415Z,2.70
2023-03-25T06:16:27.616Z,2.80
2023-03-25T06:18:59.979Z,2.80
2023-03-25T06:21:33.321Z,2.70
2023-03-25T06:24:03.928Z,2.80
2023-03-25T06:26:32.634Z,2.80
2023-03-25T06:28:59.850Z,2.80
2023-03-25T06:31:27.167Z,2.80
2023-03-25T06:33:56.151Z,2.80
2023-03-25T06:36:25.715Z,2.80
2023-03-25T06:38:54.219Z,2.80
2023-03-25T06:41:21.903Z,2.80
2023-03-25T06:43:49.541Z,2.90
2023-03-25T06:46:16.998Z,2.90
2023-03-25T06:48:43.989Z,2.90
2023-03-25T06:51:11.868Z,2.90
2023-03-25T06:53:38.956Z,2.90
2023-03-25T06:56:06.424Z,3.00
2023-03-25T06:58:36.477Z,2.90
2023-03-25T07:01:07.722Z,3.00
2023-03-25T07:03:37.577Z,2.90
2023-03-25T07:06:06.480Z,3.00
2023-03-25T07:08:33.770Z,3.00
2023-03-25T07:11:07.310Z,3.10
2023-03-25T07:13:34.877Z,3.00
2023-03-25T07:16:02.498Z,3.00
2023-03-25T07:18:29.480Z,3.00
2023-03-25T07:20:56.463Z,3.00
2023-03-25T07:23:23.480Z,2.80
2023-03-25T07:25:50.538Z,2.80
2023-03-25T07:28:17.795Z,2.90
2023-03-25T07:30:45.134Z,2.80
2023-03-25T07:33:12.266Z,3.00
2023-03-25T07:35:39.242Z,2.90
2023-03-25T07:38:06.347Z,3.00
2023-03-25T07:40:33.600Z,3.00
2023-03-25T07:43:00.508Z,3.10
2023-03-25T07:45:27.499Z,3.00
2023-03-25T07:47:54.550Z,3.00
2023-03-25T07:50:25.444Z,3.10
2023-03-25T07:52:53.917Z,3.10
2023-03-25T07:55:21.050Z,3.10
2023-03-25T07:57:47.984Z,3.10
2023-03-25T08:00:15.040Z,3.20
2023-03-25T08:02:42.094Z,3.20
2023-03-25T08:05:09.642Z,3.30
2023-03-25T08:07:36.589Z,3.30
2023-03-25T08:10:04.028Z,3.20
2023-03-25T08:12:30.919Z,3.20
2023-03-25T08:14:57.979Z,3.20
2023-03-25T08:17:24.945Z,3.20
2023-03-25T08:19:51.874Z,3.10
2023-03-25T08:22:18.805Z,3.10
2023-03-25T08:24:45.761Z,3.20
2023-03-25T08:27:16.149Z,3.10
2023-03-25T08:29:44.892Z,3.10
2023-03-25T08:32:11.938Z,3.20
2023-03-25T08:34:42.047Z,3.10
2023-03-25T08:37:10.043Z,3.20
2023-03-25T08:39:40.049Z,3.20
2023-03-25T08:42:08.687Z,3.20
2023-03-25T08:44:35.885Z,3.20
2023-03-25T08:47:03.096Z,3.20
2023-03-25T08:49:30.656Z,3.10
2023-03-25T08:51:59.209Z,3.10
2023-03-25T08:54:27.258Z,3.10
2023-03-25T08:56:54.898Z,3.00
2023-03-25T08:59:22.376Z,3.10
2023-03-25T09:01:49.376Z,3.10
2023-03-25T09:04:16.389Z,3.10
2023-03-25T09:06:47.280Z,3.10
2023-03-25T09:09:16.498Z,3.10
2023-03-25T09:11:44.173Z,3.10
2023-03-25T09:14:11.317Z,3.10
2023-03-25T09:16:38.439Z,3.20
2023-03-25T09:19:05.347Z,3.10
2023-03-25T09:21:32.377Z,3.10
2023-03-25T09:23:59.355Z,3.20
2023-03-25T09:26:26.459Z,3.20
2023-03-25T09:28:55.587Z,3.20
2023-03-25T09:31:23.942Z,3.10
2023-03-25T09:33:51.279Z,3.10
2023-03-25T09:36:18.268Z,3.00
2023-03-25T09:38:45.788Z,3.00
2023-03-25T09:41:44.453Z,3.10
2023-03-25T09:44:24.302Z,3.10
2023-03-25T09:46:51.321Z,3.10
2023-03-25T09:49:25.842Z,3.10
2023-03-25T09:51:54.683Z,3.00
2023-03-25T09:54:28.702Z,3.00
2023-03-25T09:56:59.732Z,3.10
2023-03-25T09:59:41.981Z,3.20
2023-03-25T10:02:31.103Z,3.10
2023-03-25T10:05:20.795Z,3.00
2023-03-25T10:08:17.565Z,3.10
2023-03-25T10:10:59.563Z,3.00
2023-03-25T10:13:38.594Z,3.00
2023-03-25T10:16:31.022Z,3.10
2023-03-25T10:19:22.216Z,2.90
2023-03-25T10:22:03.880Z,2.90
2023-03-25T10:24:36.365Z,2.80
2023-03-25T10:27:21.199Z,2.90
2023-03-25T10:29:56.599Z,2.90
2023-03-25T10:32:37.032Z,2.90
2023-03-25T10:35:07.617Z,2.90
2023-03-25T10:37:39.438Z,2.80
2023-03-25T10:40:44.749Z,2.90
2023-03-25T10:43:36.179Z,2.80
2023-03-25T10:46:08.986Z,2.80
2023-03-25T10:48:36.959Z,2.80
2023-03-25T10:51:19.528Z,2.70
2023-03-25T10:53:53.176Z,2.70
2023-03-25T10:56:40.488Z,2.70
2023-03-25T10:59:20.265Z,2.70
2023-03-25T11:01:48.098Z,2.70
2023-03-25T11:04:20.310Z,2.70
2023-03-25T11:06:54.153Z,2.60
2023-03-25T11:09:34.280Z,2.70
2023-03-25T11:12:02.901Z,2.60
2023-03-25T11:14:30.879Z,2.60
2023-03-25T11:17:04.105Z,2.50
2023-03-25T11:19:33.297Z,2.40
2023-03-25T11:22:16.177Z,2.40
2023-03-25T11:24:47.536Z,2.40
2023-03-25T11:27:23.871Z,2.40
2023-03-25T11:29:53.700Z,2.40
2023-03-25T11:32:32.059Z,2.40
2023-03-25T11:35:03.616Z,2.30
2023-03-25T11:37:33.520Z,2.30
2023-03-25T11:40:13.222Z,2.40
2023-03-25T11:42:49.545Z,2.40
2023-03-25T11:45:22.667Z,2.40
2023-03-25T11:47:51.075Z,2.30
2023-03-25T11:50:26.968Z,2.30
2023-03-25T11:52:57.551Z,2.20
2023-03-25T11:55:28.060Z,2.20
2023-03-25T11:57:58.747Z,2.20
2023-03-25T12:00:28.923Z,2.20
2023-03-25T12:03:03.382Z,2.20
2023-03-25T12:05:31.421Z,2.20
2023-03-25T12:08:09.830Z,2.20
2023-03-25T12:11:00.978Z,2.20
2023-03-25T12:14:05.883Z,2.20
2023-03-25T12:16:56.448Z,2.10
2023-03-25T12:19:44.642Z,2.20
2023-03-25T12:22:17.603Z,2.20
2023-03-25T12:24:59.882Z,2.20
2023-03-25T12:27:58.329Z,2.30
2023-03-25T12:30:43.439Z,2.20
2023-03-25T12:33:22.374Z,2.30
2023-03-25T12:36:27.208Z,2.30
2023-03-25T12:39:01.856Z,2.30
2023-03-25T12:41:43.279Z,2.30
2023-03-25T12:44:38.227Z,2.40
2023-03-25T12:47:14.007Z,2.40
2023-03-25T12:49:54.025Z,2.40
2023-03-25T12:52:41.420Z,2.50
2023-03-25T12:55:33.286Z,2.50
2023-03-25T12:58:06.721Z,2.50
2023-03-25T13:00:42.979Z,2.50
2023-03-25T13:03:32.124Z,2.60
2023-03-25T13:06:34.850Z,2.60
2023-03-25T13:09:15.096Z,2.60
2023-03-25T13:11:54.433Z,2.60
2023-03-25T13:14:27.383Z,2.70
2023-03-25T13:16:57.855Z,2.70
2023-03-25T13:19:28.957Z,2.70
2023-03-25T13:22:04.841Z,2.70
2023-03-25T13:24:43.398Z,2.70
2023-03-25T13:27:13.727Z,2.60
2023-03-25T13:29:54.298Z,2.70
2023-03-25T13:32:34.464Z,2.60
2023-03-25T13:35:13.726Z,2.70
2023-03-25T13:37:49.489Z,2.70
2023-03-25T13:40:34.132Z,2.70
2023-03-25T13:43:32.204Z,2.70
2023-03-25T13:46:13.764Z,2.70
2023-03-25T13:49:13.084Z,2.70
2023-03-25T13:51:40.370Z,2.70
2023-03-25T13:54:20.168Z,2.70
2023-03-25T13:56:57.552Z,2.70
2023-03-25T13:59:42.389Z,2.70
2023-03-25T14:02:09.301Z,2.70
2023-03-25T14:04:44.867Z,2.70
2023-03-25T14:07:21.325Z,2.80
2023-03-25T14:10:12.335Z,2.80
2023-03-25T14:13:03.757Z,2.80
2023-03-25T14:15:34.695Z,2.80
2023-03-25T14:18:02.750Z,2.80
2023-03-25T14:20:33.325Z,2.80
2023-03-25T14:23:04.926Z,2.80
2023-03-25T14:25:57.431Z,2.80
2023-03-25T14:28:39.825Z,2.80
2023-03-25T14:31:31.161Z,2.90
2023-03-25T14:34:03.038Z,2.80
2023-03-25T14:36:40.022Z,2.80
2023-03-25T14:39:12.520Z,2.80
2023-03-25T14:42:04.388Z,2.80
2023-03-25T14:44:41.062Z,2.80
2023-03-25T14:47:15.958Z,2.80
2023-03-25T14:50:01.650Z,2.80
2023-03-25T14:52:58.402Z,2.80
2023-03-25T14:55:44.065Z,2.80
2023-03-25T14:58:25.037Z,2.70
2023-03-25T15:01:12.511Z,2.70
2023-03-25T15:03:44.627Z,2.70
2023-03-25T15:06:34.034Z,2.70
2023-03-25T15:09:09.687Z,2.70
2023-03-25T15:11:40.094Z,2.70
2023-03-25T15:14:13.431Z,2.70
2023-03-25T15:16:47.604Z,2.70
2023-03-25T15:19:19.030Z,2.60
2023-03-25T15:21:58.056Z,2.70
2023-03-25T15:24:36.668Z,2.70
2023-03-25T15:27:14.866Z,2.70
2023-03-25T15:30:24.366Z,2.70
2023-03-25T15:33:31.666Z,2.70
2023-03-25T15:36:10.815Z,2.70
2023-03-25T15:38:59.064Z,2.70
2023-03-25T15:41:37.926Z,2.80
2023-03-25T15:44:28.085Z,2.70
2023-03-25T15:46:57.881Z,2.70
2023-03-25T15:49:50.561Z,2.70
2023-03-25T15:52:26.180Z,2.60
2023-03-25T15:55:06.353Z,2.60
2023-03-25T15:57:54.484Z,2.60
2023-03-25T16:00:34.748Z,2.60
2023-03-25T16:03:14.350Z,2.60
2023-03-25T16:05:54.066Z,2.50
2023-03-25T16:08:42.813Z,2.50
2023-03-25T16:11:21.616Z,2.50
2023-03-25T16:14:00.587Z,2.50
2023-03-25T16:16:34.441Z,2.50
2023-03-25T16:19:04.709Z,2.50
2023-03-25T16:21:32.711Z,2.50
2023-03-25T16:24:05.064Z,2.40
2023-03-25T16:26:48.096Z,2.40
2023-03-25T16:29:23.841Z,2.40
2023-03-25T16:32:02.516Z,2.40
2023-03-25T16:34:37.984Z,2.40
2023-03-25T16:37:06.315Z,2.40
2023-03-25T16:39:35.884Z,2.40
2023-03-25T16:42:17.768Z,2.40
2023-03-25T16:44:46.104Z,2.40
2023-03-25T16:47:15.879Z,2.40
2023-03-25T16:49:50.440Z,2.40
2023-03-25T16:52:23.473Z,2.40
2023-03-25T16:55:47.306Z,2.40
2023-03-25T16:58:18.414Z,2.40
2023-03-25T17:00:48.495Z,2.30
2023-03-25T17:03:21.532Z,2.30
2023-03-25T17:05:56.774Z,2.40
2023-03-25T17:08:24.074Z,2.40
2023-03-25T17:10:55.265Z,2.40
2023-03-25T17:13:33.042Z,2.50
2023-03-25T17:16:00.185Z,2.50
2023-03-25T17:18:31.189Z,2.50
2023-03-25T17:21:01.440Z,2.50
2023-03-25T17:23:37.444Z,2.50
2023-03-25T17:26:09.815Z,2.40
2023-03-25T17:28:38.283Z,2.40
2023-03-25T17:31:25.462Z,2.40
2023-03-25T17:34:08.677Z,2.40
2023-03-25T17:36:41.276Z,2.40
2023-03-25T17:39:29.239Z,2.40
2023-03-25T17:42:04.891Z,2.40
2023-03-25T17:44:38.556Z,2.30
2023-03-25T17:47:07.808Z,2.30
2023-03-25T17:49:34.991Z,2.40
2023-03-25T17:52:02.928Z,2.40
2023-03-25T17:54:29.825Z,2.40
2023-03-25T17:56:56.775Z,2.30
2023-03-25T17:59:27.604Z,2.20
2023-03-25T18:01:54.792Z,2.20
2023-03-25T18:04:22.239Z,2.30
2023-03-25T18:06:49.680Z,2.20
2023-03-25T18:09:17.709Z,2.20
2023-03-25T18:11:46.148Z,2.20
2023-03-25T18:14:13.378Z,2.10
2023-03-25T18:16:40.554Z,2.20
2023-03-25T18:19:31.194Z,2.10
2023-03-25T18:22:06.792Z,2.00
2023-03-25T18:24:37.550Z,2.00
2023-03-25T18:27:05.002Z,2.00
2023-03-25T18:29:32.116Z,2.00
2023-03-25T18:31:59.212Z,2.00
2023-03-25T18:34:26.233Z,1.90
2023-03-25T18:36:54.116Z,1.90
2023-03-25T18:39:26.142Z,2.00
2023-03-25T18:41:53.110Z,2.00
2023-03-25T18:44:20.375Z,2.00
2023-03-25T18:46:47.478Z,1.90
2023-03-25T18:49:16.883Z,1.90
2023-03-25T18:51:44.272Z,1.80
2023-03-25T18:54:11.298Z,1.90
2023-03-25T18:56:41.510Z,1.80
2023-03-25T18:59:10.869Z,1.80
2023-03-25T19:01:38.010Z,1.90
2023-03-25T19:04:05.041Z,1.90
2023-03-25T19:06:32.163Z,1.90
2023-03-25T19:08:59.149Z,1.90
2023-03-25T19:11:26.574Z,1.90
2023-03-25T19:13:53.782Z,1.80
2023-03-25T19:16:21.711Z,1.80
2023-03-25T19:18:48.894Z,1.80
2023-03-25T19:21:20.288Z,1.80
2023-03-25T19:23:47.906Z,1.90
2023-03-25T19:26:15.357Z,1.80
2023-03-25T19:28:42.652Z,1.80
2023-03-25T19:31:15.575Z,1.80
2023-03-25T19:33:42.960Z,1.80
2023-03-25T19:36:14.855Z,1.80
2023-03-25T19:38:42.876Z,1.70
2023-03-25T19:41:12.388Z,1.70
2023-03-25T19:43:39.492Z,1.70
2023-03-25T19:46:07.189Z,1.70
2023-03-25T19:48:34.794Z,1.70
2023-03-25T19:51:02.256Z,1.70
2023-03-25T19:53:29.645Z,1.70
2023-03-25T19:55:57.044Z,1.60
2023-03-25T19:58:24.678Z,1.60
2023-03-25T20:00:51.820Z,1.60
2023-03-25T20:03:22.680Z,1.60
2023-03-25T20:05:56.652Z,1.50
2023-03-25T20:08:25.790Z,1.60
2023-03-25T20:10:53.397Z,1.60
2023-03-25T20:13:20.887Z,1.60
2023-03-25T20:15:49.753Z,1.50
2023-03-25T20:20:57.947Z,1.50
2023-03-25T20:23:24.936Z,1.60
2023-03-25T20:25:52.643Z,1.50
2023-03-25T20:28:19.722Z,1.60
2023-03-25T20:30:46.671Z,1.50
2023-03-25T20:33:13.664Z,1.50
2023-03-25T20:35:40.984Z,1.50
2023-03-25T20:38:08.515Z,1.40
2023-03-25T20:40:44.042Z,1.40
2023-03-25T20:43:13.855Z,1.50
2023-03-25T20:45:41.538Z,1.50
2023-03-25T20:48:08.894Z,1.40
2023-03-25T20:50:36.074Z,1.30
2023-03-25T20:53:04.457Z,1.40
2023-03-25T20:55:31.665Z,1.40
2023-03-25T20:57:58.587Z,1.40
2023-03-25T21:00:25.492Z,1.40
2023-03-25T21:02:52.631Z,1.30
2023-03-25T21:05:19.807Z,1.30
2023-03-25T21:07:46.940Z,1.30
2023-03-25T21:10:14.332Z,1.30
2023-03-25T21:12:44.708Z,1.40
2023-03-25T21:15:14.821Z,1.40
2023-03-25T21:17:42.562Z,1.30
2023-03-25T21:20:10.694Z,1.30
2023-03-25T21:22:44.384Z,1.40
2023-03-25T21:25:14.570Z,1.40
2023-03-25T21:27:42.504Z,1.40
2023-03-25T21:30:10.471Z,1.30
2023-03-25T21:32:40.448Z,1.30
2023-03-25T21:35:09.091Z,1.30
2023-03-25T21:37:38.874Z,1.20
2023-03-25T21:40:10.315Z,1.30
2023-03-25T21:42:38.767Z,1.30
2023-03-25T21:45:08.076Z,1.30
2023-03-25T21:47:36.553Z,1.30
2023-03-25T21:50:10.094Z,1.30
2023-03-25T21:52:38.725Z,1.30
2023-03-25T21:55:06.375Z,1.20
2023-03-25T21:57:39.053Z,1.20
2023-03-25T22:00:08.157Z,1.20
2023-03-25T22:02:35.427Z,1.20
2023-03-25T22:05:02.833Z,1.20
2023-03-25T22:07:30.964Z,1.20
2023-03-25T22:09:57.898Z,1.20
2023-03-25T22:12:24.795Z,1.20
2023-03-25T22:14:51.697Z,1.20
2023-03-25T22:17:19.025Z,1.10
2023-03-25T22:19:47.824Z,1.20
2023-03-25T22:22:19.124Z,1.20
2023-03-25T22:24:46.598Z,1.20
2023-03-25T22:27:13.564Z,1.20
2023-03-25T22:29:42.151Z,1.20
2023-03-25T22:32:10.872Z,1.20
2023-03-25T22:34:38.744Z,1.10
2023-03-25T22:37:05.993Z,1.20
2023-03-25T22:39:33.022Z,1.20
2023-03-25T22:42:00.053Z,1.10
2023-03-25T22:44:27.284Z,1.10
2023-03-25T22:46:54.280Z,1.10
2023-03-25T22:49:21.840Z,1.10
2023-03-25T22:51:50.299Z,1.10
2023-03-25T22:54:17.624Z,1.10
2023-03-25T22:56:44.685Z,1.10
2023-03-25T22:59:13.250Z,1.10
2023-03-25T23:01:41.682Z,1.10
2023-03-25T23:04:09.641Z,1.00
2023-03-25T23:06:37.387Z,1.00
2023-03-25T23:09:08.170Z,1.00
2023-03-25T23:11:38.314Z,1.00
2023-03-25T23:14:13.062Z,1.00
2023-03-25T23:16:41.663Z,1.00
2023-03-25T23:19:10.064Z,1.00
2023-03-25T23:21:38.209Z,1.00
2023-03-25T23:24:05.517Z,1.00
2023-03-25T23:26:39.386Z,1.00
2023-03-25T23:29:10.619Z,1.00
2023-03-25T23:31:41.192Z,1.00
2023-03-25T23:34:11.303Z,1.00
2023-03-25T23:36:39.427Z,1.00
2023-03-25T23:39:08.937Z,1.00
2023-03-25T23:41:36.468Z,1.00
2023-03-25T23:44:05.974Z,1.00
2023-03-25T23:46:34.002Z,1.00
2023-03-25T23:49:04.223Z,0.90
2023-03-25T23:51:37.589Z,0.90
2023-03-25T23:54:06.474Z,0.90
2023-03-25T23:56:34.064Z,0.90
2023-03-25T23:59:02.182Z,0.80
